sensor_id;sensor_type;location;lat;lon;timestamp;P1;durP1;ratioP1;P2;durP2;ratioP2
19621;SDS011;9958;33.196;-97.114;2023-06-22T00:01:32;15.20;;;10.40;;
19621;SDS011;9958;33.196;-97.114;2023-06-22T00:04:01;12.30;;;9.52;;
19621;SDS011;9958;33.196;-97.114;2023-06-22T00:06:29;16.17;;;10.65;;
19621;SDS011;9958;33.196;-97.114;2023-06-22T00:08:59;13.93;;;9.73;;
19621;SDS011;9958;33.196;-97.114;2023-06-22T00:11:28;11.75;;;8.70;;
19621;SDS011;9958;33.196;-97.114;2023-06-22T00:13:58;14.38;;;9.43;;
19621;SDS011;9958;33.196;-97.114;2023-06-22T00:16:27;11.50;;;8.20;;
19621;SDS011;9958;33.196;-97.114;2023-06-22T00:18:55;11.38;;;8.77;;
19621;SDS011;9958;33.196;-97.114;2023-06-22T00:21:25;12.90;;;9.23;;
19621;SDS011;9958;33.196;-97.114;2023-06-22T00:23:54;11.40;;;8.27;;
19621;SDS011;9958;33.196;-97.114;2023-06-22T00:26:24;14.70;;;8.85;;
19621;SDS011;9958;33.196;-97.114;2023-06-22T00:28:52;13.10;;;9.15;;
19621;SDS011;9958;33.196;-97.114;2023-06-22T00:31:21;14.18;;;9.05;;
19621;SDS011;9958;33.196;-97.114;2023-06-22T00:33:49;12.32;;;8.50;;
19621;SDS011;9958;33.196;-97.114;2023-06-22T00:36:17;12.02;;;8.95;;
19621;SDS011;9958;33.196;-97.114;2023-06-22T00:38:45;14.35;;;8.90;;
19621;SDS011;9958;33.196;-97.114;2023-06-22T00:41:16;13.13;;;8.98;;
19621;SDS011;9958;33.196;-97.114;2023-06-22T00:43:46;13.55;;;8.65;;
19621;SDS011;9958;33.196;-97.114;2023-06-22T00:46:14;12.20;;;8.65;;
19621;SDS011;9958;33.196;-97.114;2023-06-22T00:48:43;10.90;;;8.45;;
19621;SDS011;9958;33.196;-97.114;2023-06-22T00:51:12;14.23;;;9.40;;
19621;SDS011;9958;33.196;-97.114;2023-06-22T00:53:40;11.10;;;8.10;;
19621;SDS011;9958;33.196;-97.114;2023-06-22T00:56:09;12.77;;;8.95;;
19621;SDS011;9958;33.196;-97.114;2023-06-22T00:58:38;11.30;;;8.57;;
19621;SDS011;9958;33.196;-97.114;2023-06-22T01:01:09;10.63;;;8.52;;
19621;SDS011;9958;33.196;-97.114;2023-06-22T01:03:37;11.48;;;8.52;;
19621;SDS011;9958;33.196;-97.114;2023-06-22T01:06:07;13.07;;;8.88;;
19621;SDS011;9958;33.196;-97.114;2023-06-22T01:08:39;12.88;;;8.73;;
19621;SDS011;9958;33.196;-97.114;2023-06-22T01:11:12;11.70;;;7.78;;
19621;SDS011;9958;33.196;-97.114;2023-06-22T01:13:47;12.65;;;8.93;;
19621;SDS011;9958;33.196;-97.114;2023-06-22T01:16:23;12.10;;;8.45;;
19621;SDS011;9958;33.196;-97.114;2023-06-22T01:18:54;13.18;;;8.35;;
19621;SDS011;9958;33.196;-97.114;2023-06-22T01:21:26;10.27;;;8.20;;
19621;SDS011;9958;33.196;-97.114;2023-06-22T01:24:01;12.85;;;8.68;;
19621;SDS011;9958;33.196;-97.114;2023-06-22T01:26:39;10.60;;;7.90;;
19621;SDS011;9958;33.196;-97.114;2023-06-22T01:29:12;11.25;;;8.32;;
19621;SDS011;9958;33.196;-97.114;2023-06-22T01:31:42;15.88;;;8.23;;
19621;SDS011;9958;33.196;-97.114;2023-06-22T01:34:11;10.60;;;7.97;;
19621;SDS011;9958;33.196;-97.114;2023-06-22T01:36:41;12.48;;;8.65;;
19621;SDS011;9958;33.196;-97.114;2023-06-22T01:39:10;11.35;;;8.68;;
19621;SDS011;9958;33.196;-97.114;2023-06-22T01:41:40;10.10;;;8.02;;
19621;SDS011;9958;33.196;-97.114;2023-06-22T01:44:09;14.38;;;8.73;;
19621;SDS011;9958;33.196;-97.114;2023-06-22T01:46:40;12.40;;;8.75;;
19621;SDS011;9958;33.196;-97.114;2023-06-22T01:49:08;11.57;;;8.40;;
19621;SDS011;9958;33.196;-97.114;2023-06-22T01:51:37;11.30;;;8.93;;
19621;SDS011;9958;33.196;-97.114;2023-06-22T01:54:06;12.50;;;8.55;;
19621;SDS011;9958;33.196;-97.114;2023-06-22T01:56:35;13.18;;;9.10;;
19621;SDS011;9958;33.196;-97.114;2023-06-22T01:59:05;13.32;;;8.63;;
19621;SDS011;9958;33.196;-97.114;2023-06-22T02:01:42;16.95;;;8.73;;
19621;SDS011;9958;33.196;-97.114;2023-06-22T02:04:12;11.90;;;8.65;;
19621;SDS011;9958;33.196;-97.114;2023-06-22T02:06:47;10.68;;;8.10;;
19621;SDS011;9958;33.196;-97.114;2023-06-22T02:09:19;15.30;;;8.98;;
19621;SDS011;9958;33.196;-97.114;2023-06-22T02:11:49;12.20;;;8.02;;
19621;SDS011;9958;33.196;-97.114;2023-06-22T02:14:20;12.23;;;8.88;;
19621;SDS011;9958;33.196;-97.114;2023-06-22T02:16:52;13.52;;;8.63;;
19621;SDS011;9958;33.196;-97.114;2023-06-22T02:19:22;11.88;;;8.40;;
19621;SDS011;9958;33.196;-97.114;2023-06-22T02:21:51;12.43;;;9.02;;
19621;SDS011;9958;33.196;-97.114;2023-06-22T02:24:19;10.60;;;8.25;;
19621;SDS011;9958;33.196;-97.114;2023-06-22T02:26:49;12.77;;;8.75;;
19621;SDS011;9958;33.196;-97.114;2023-06-22T02:29:17;10.80;;;8.77;;
19621;SDS011;9958;33.196;-97.114;2023-06-22T02:31:46;14.50;;;8.45;;
19621;SDS011;9958;33.196;-97.114;2023-06-22T02:34:15;11.02;;;8.68;;
19621;SDS011;9958;33.196;-97.114;2023-06-22T02:36:44;11.52;;;8.20;;
19621;SDS011;9958;33.196;-97.114;2023-06-22T02:39:16;13.13;;;8.95;;
19621;SDS011;9958;33.196;-97.114;2023-06-22T02:41:47;11.52;;;8.40;;
19621;SDS011;9958;33.196;-97.114;2023-06-22T02:44:16;11.13;;;8.75;;
19621;SDS011;9958;33.196;-97.114;2023-06-22T02:46:44;11.35;;;8.57;;
19621;SDS011;9958;33.196;-97.114;2023-06-22T02:49:15;13.40;;;9.07;;
19621;SDS011;9958;33.196;-97.114;2023-06-22T02:51:45;12.52;;;8.52;;
19621;SDS011;9958;33.196;-97.114;2023-06-22T02:54:14;12.20;;;8.55;;
19621;SDS011;9958;33.196;-97.114;2023-06-22T02:56:43;13.32;;;7.60;;
19621;SDS011;9958;33.196;-97.114;2023-06-22T02:59:11;10.27;;;8.25;;
19621;SDS011;9958;33.196;-97.114;2023-06-22T03:01:39;16.17;;;9.73;;
19621;SDS011;9958;33.196;-97.114;2023-06-22T03:04:08;11.73;;;8.52;;
19621;SDS011;9958;33.196;-97.114;2023-06-22T03:06:38;10.40;;;8.38;;
19621;SDS011;9958;33.196;-97.114;2023-06-22T03:09:06;12.80;;;9.38;;
19621;SDS011;9958;33.196;-97.114;2023-06-22T03:11:35;13.32;;;9.20;;
19621;SDS011;9958;33.196;-97.114;2023-06-22T03:14:03;11.05;;;8.80;;
19621;SDS011;9958;33.196;-97.114;2023-06-22T03:16:31;13.65;;;9.15;;
19621;SDS011;9958;33.196;-97.114;2023-06-22T03:19:00;17.33;;;9.82;;
19621;SDS011;9958;33.196;-97.114;2023-06-22T03:21:28;17.17;;;9.05;;
19621;SDS011;9958;33.196;-97.114;2023-06-22T03:23:59;19.52;;;8.52;;
19621;SDS011;9958;33.196;-97.114;2023-06-22T03:26:27;13.65;;;9.40;;
19621;SDS011;9958;33.196;-97.114;2023-06-22T03:28:55;13.30;;;9.00;;
19621;SDS011;9958;33.196;-97.114;2023-06-22T03:31:24;11.13;;;9.13;;
19621;SDS011;9958;33.196;-97.114;2023-06-22T03:33:52;14.68;;;9.43;;
19621;SDS011;9958;33.196;-97.114;2023-06-22T03:36:21;15.48;;;9.07;;
19621;SDS011;9958;33.196;-97.114;2023-06-22T03:38:49;14.45;;;10.30;;
19621;SDS011;9958;33.196;-97.114;2023-06-22T03:41:20;12.68;;;9.60;;
19621;SDS011;9958;33.196;-97.114;2023-06-22T03:43:48;13.20;;;8.95;;
19621;SDS011;9958;33.196;-97.114;2023-06-22T03:46:16;16.15;;;9.55;;
19621;SDS011;9958;33.196;-97.114;2023-06-22T03:48:45;14.10;;;10.18;;
19621;SDS011;9958;33.196;-97.114;2023-06-22T03:51:13;14.70;;;9.85;;
19621;SDS011;9958;33.196;-97.114;2023-06-22T03:53:42;18.05;;;10.00;;
19621;SDS011;9958;33.196;-97.114;2023-06-22T03:56:10;16.15;;;10.60;;
19621;SDS011;9958;33.196;-97.114;2023-06-22T03:58:40;13.38;;;9.80;;
19621;SDS011;9958;33.196;-97.114;2023-06-22T04:01:10;14.52;;;9.18;;
19621;SDS011;9958;33.196;-97.114;2023-06-22T04:03:39;13.50;;;10.02;;
19621;SDS011;9958;33.196;-97.114;2023-06-22T04:06:08;13.50;;;8.77;;
19621;SDS011;9958;33.196;-97.114;2023-06-22T04:08:36;14.60;;;9.68;;
19621;SDS011;9958;33.196;-97.114;2023-06-22T04:11:05;13.43;;;10.00;;
19621;SDS011;9958;33.196;-97.114;2023-06-22T04:13:33;17.77;;;9.70;;
19621;SDS011;9958;33.196;-97.114;2023-06-22T04:16:03;14.65;;;9.20;;
19621;SDS011;9958;33.196;-97.114;2023-06-22T04:18:31;13.85;;;9.05;;
19621;SDS011;9958;33.196;-97.114;2023-06-22T04:21:00;11.95;;;9.50;;
19621;SDS011;9958;33.196;-97.114;2023-06-22T04:23:28;14.32;;;9.10;;
19621;SDS011;9958;33.196;-97.114;2023-06-22T04:25:57;13.65;;;10.13;;
19621;SDS011;9958;33.196;-97.114;2023-06-22T04:28:26;14.73;;;9.85;;
19621;SDS011;9958;33.196;-97.114;2023-06-22T04:30:54;13.38;;;9.43;;
19621;SDS011;9958;33.196;-97.114;2023-06-22T04:33:25;16.02;;;9.75;;
19621;SDS011;9958;33.196;-97.114;2023-06-22T04:35:54;14.38;;;10.32;;
19621;SDS011;9958;33.196;-97.114;2023-06-22T04:38:24;14.77;;;10.05;;
19621;SDS011;9958;33.196;-97.114;2023-06-22T04:40:53;14.25;;;9.75;;
19621;SDS011;9958;33.196;-97.114;2023-06-22T04:43:21;14.85;;;10.13;;
19621;SDS011;9958;33.196;-97.114;2023-06-22T04:45:49;14.68;;;10.10;;
19621;SDS011;9958;33.196;-97.114;2023-06-22T04:48:17;13.68;;;9.82;;
19621;SDS011;9958;33.196;-97.114;2023-06-22T04:50:47;12.85;;;9.55;;
19621;SDS011;9958;33.196;-97.114;2023-06-22T04:53:16;14.88;;;10.13;;
19621;SDS011;9958;33.196;-97.114;2023-06-22T04:55:44;13.30;;;10.02;;
19621;SDS011;9958;33.196;-97.114;2023-06-22T04:58:14;13.25;;;9.75;;
19621;SDS011;9958;33.196;-97.114;2023-06-22T05:00:45;17.05;;;10.32;;
19621;SDS011;9958;33.196;-97.114;2023-06-22T05:03:13;13.30;;;9.55;;
19621;SDS011;9958;33.196;-97.114;2023-06-22T05:05:44;13.40;;;9.00;;
19621;SDS011;9958;33.196;-97.114;2023-06-22T05:08:13;16.15;;;9.82;;
19621;SDS011;9958;33.196;-97.114;2023-06-22T05:10:42;12.20;;;9.23;;
19621;SDS011;9958;33.196;-97.114;2023-06-22T05:13:10;16.88;;;9.52;;
19621;SDS011;9958;33.196;-97.114;2023-06-22T05:15:38;15.20;;;9.15;;
19621;SDS011;9958;33.196;-97.114;2023-06-22T05:18:07;15.18;;;9.15;;
19621;SDS011;9958;33.196;-97.114;2023-06-22T05:20:37;11.45;;;9.40;;
19621;SDS011;9958;33.196;-97.114;2023-06-22T05:23:05;14.15;;;9.85;;
19621;SDS011;9958;33.196;-97.114;2023-06-22T05:25:35;14.02;;;9.18;;
19621;SDS011;9958;33.196;-97.114;2023-06-22T05:28:03;13.60;;;8.65;;
19621;SDS011;9958;33.196;-97.114;2023-06-22T05:30:37;11.80;;;9.07;;
19621;SDS011;9958;33.196;-97.114;2023-06-22T05:33:05;11.40;;;8.50;;
19621;SDS011;9958;33.196;-97.114;2023-06-22T05:35:33;11.73;;;9.63;;
19621;SDS011;9958;33.196;-97.114;2023-06-22T05:38:02;12.57;;;9.35;;
19621;SDS011;9958;33.196;-97.114;2023-06-22T05:40:30;14.18;;;10.30;;
19621;SDS011;9958;33.196;-97.114;2023-06-22T05:43:00;15.00;;;9.95;;
19621;SDS011;9958;33.196;-97.114;2023-06-22T05:45:28;16.58;;;10.73;;
19621;SDS011;9958;33.196;-97.114;2023-06-22T05:47:56;14.40;;;8.80;;
19621;SDS011;9958;33.196;-97.114;2023-06-22T05:50:25;14.55;;;9.98;;
19621;SDS011;9958;33.196;-97.114;2023-06-22T05:52:53;14.20;;;10.05;;
19621;SDS011;9958;33.196;-97.114;2023-06-22T05:55:21;13.38;;;9.98;;
19621;SDS011;9958;33.196;-97.114;2023-06-22T05:57:50;15.98;;;10.10;;
19621;SDS011;9958;33.196;-97.114;2023-06-22T06:00:20;15.73;;;10.20;;
19621;SDS011;9958;33.196;-97.114;2023-06-22T06:02:49;15.68;;;10.05;;
19621;SDS011;9958;33.196;-97.114;2023-06-22T06:05:17;13.48;;;9.98;;
19621;SDS011;9958;33.196;-97.114;2023-06-22T06:07:46;14.15;;;10.40;;
19621;SDS011;9958;33.196;-97.114;2023-06-22T06:10:14;15.82;;;10.98;;
19621;SDS011;9958;33.196;-97.114;2023-06-22T06:12:42;15.57;;;10.07;;
19621;SDS011;9958;33.196;-97.114;2023-06-22T06:15:11;16.55;;;11.15;;
19621;SDS011;9958;33.196;-97.114;2023-06-22T06:17:46;16.15;;;10.45;;
19621;SDS011;9958;33.196;-97.114;2023-06-22T06:20:15;16.95;;;11.20;;
19621;SDS011;9958;33.196;-97.114;2023-06-22T06:22:45;15.45;;;11.38;;
19621;SDS011;9958;33.196;-97.114;2023-06-22T06:25:13;14.25;;;10.45;;
19621;SDS011;9958;33.196;-97.114;2023-06-22T06:27:43;16.10;;;10.82;;
19621;SDS011;9958;33.196;-97.114;2023-06-22T06:30:12;18.10;;;11.02;;
19621;SDS011;9958;33.196;-97.114;2023-06-22T06:32:41;14.02;;;9.93;;
19621;SDS011;9958;33.196;-97.114;2023-06-22T06:35:13;17.20;;;10.77;;
19621;SDS011;9958;33.196;-97.114;2023-06-22T06:37:42;16.90;;;10.50;;
19621;SDS011;9958;33.196;-97.114;2023-06-22T06:40:12;16.02;;;10.35;;
19621;SDS011;9958;33.196;-97.114;2023-06-22T06:42:41;14.80;;;10.70;;
19621;SDS011;9958;33.196;-97.114;2023-06-22T06:45:11;14.68;;;10.65;;
19621;SDS011;9958;33.196;-97.114;2023-06-22T06:47:39;14.95;;;10.43;;
19621;SDS011;9958;33.196;-97.114;2023-06-22T06:50:08;14.93;;;10.80;;
19621;SDS011;9958;33.196;-97.114;2023-06-22T06:52:38;13.90;;;10.13;;
19621;SDS011;9958;33.196;-97.114;2023-06-22T06:55:07;14.77;;;10.38;;
19621;SDS011;9958;33.196;-97.114;2023-06-22T06:57:37;16.27;;;11.65;;
19621;SDS011;9958;33.196;-97.114;2023-06-22T07:00:06;16.65;;;11.68;;
19621;SDS011;9958;33.196;-97.114;2023-06-22T07:02:37;20.05;;;11.93;;
19621;SDS011;9958;33.196;-97.114;2023-06-22T07:05:06;14.35;;;10.18;;
19621;SDS011;9958;33.196;-97.114;2023-06-22T07:07:35;15.50;;;10.57;;
19621;SDS011;9958;33.196;-97.114;2023-06-22T07:10:05;15.10;;;10.25;;
19621;SDS011;9958;33.196;-97.114;2023-06-22T07:12:34;16.38;;;10.98;;
19621;SDS011;9958;33.196;-97.114;2023-06-22T07:15:03;15.57;;;10.60;;
19621;SDS011;9958;33.196;-97.114;2023-06-22T07:17:33;16.70;;;11.10;;
19621;SDS011;9958;33.196;-97.114;2023-06-22T07:20:02;15.40;;;11.20;;
19621;SDS011;9958;33.196;-97.114;2023-06-22T07:22:34;16.10;;;10.13;;
19621;SDS011;9958;33.196;-97.114;2023-06-22T07:25:03;14.80;;;11.20;;
19621;SDS011;9958;33.196;-97.114;2023-06-22T07:27:36;16.33;;;11.13;;
19621;SDS011;9958;33.196;-97.114;2023-06-22T07:30:08;14.55;;;10.40;;
19621;SDS011;9958;33.196;-97.114;2023-06-22T07:32:37;15.45;;;10.43;;
19621;SDS011;9958;33.196;-97.114;2023-06-22T07:35:06;18.08;;;11.00;;
19621;SDS011;9958;33.196;-97.114;2023-06-22T07:37:36;14.10;;;11.00;;
19621;SDS011;9958;33.196;-97.114;2023-06-22T07:40:06;16.05;;;11.35;;
19621;SDS011;9958;33.196;-97.114;2023-06-22T07:42:36;14.25;;;10.95;;
19621;SDS011;9958;33.196;-97.114;2023-06-22T07:45:05;16.55;;;11.90;;
19621;SDS011;9958;33.196;-97.114;2023-06-22T07:47:34;17.15;;;11.10;;
19621;SDS011;9958;33.196;-97.114;2023-06-22T07:50:03;14.13;;;10.13;;
19621;SDS011;9958;33.196;-97.114;2023-06-22T07:52:32;15.18;;;10.40;;
19621;SDS011;9958;33.196;-97.114;2023-06-22T07:55:00;17.92;;;10.77;;
19621;SDS011;9958;33.196;-97.114;2023-06-22T07:57:31;13.98;;;10.15;;
19621;SDS011;9958;33.196;-97.114;2023-06-22T07:59:59;14.05;;;10.48;;
19621;SDS011;9958;33.196;-97.114;2023-06-22T08:02:29;17.08;;;10.57;;
19621;SDS011;9958;33.196;-97.114;2023-06-22T08:04:58;15.20;;;10.77;;
19621;SDS011;9958;33.196;-97.114;2023-06-22T08:07:26;13.35;;;9.48;;
19621;SDS011;9958;33.196;-97.114;2023-06-22T08:09:54;16.52;;;10.15;;
19621;SDS011;9958;33.196;-97.114;2023-06-22T08:12:23;15.13;;;10.25;;
19621;SDS011;9958;33.196;-97.114;2023-06-22T08:14:53;12.27;;;9.60;;
19621;SDS011;9958;33.196;-97.114;2023-06-22T08:17:22;14.25;;;10.27;;
19621;SDS011;9958;33.196;-97.114;2023-06-22T08:19:50;16.02;;;10.20;;
19621;SDS011;9958;33.196;-97.114;2023-06-22T08:22:19;14.95;;;9.95;;
19621;SDS011;9958;33.196;-97.114;2023-06-22T08:24:47;14.82;;;9.93;;
19621;SDS011;9958;33.196;-97.114;2023-06-22T08:27:15;12.98;;;9.35;;
19621;SDS011;9958;33.196;-97.114;2023-06-22T08:29:46;13.93;;;10.27;;
19621;SDS011;9958;33.196;-97.114;2023-06-22T08:32:17;13.52;;;9.43;;
19621;SDS011;9958;33.196;-97.114;2023-06-22T08:34:45;15.05;;;9.60;;
19621;SDS011;9958;33.196;-97.114;2023-06-22T08:37:13;14.95;;;9.10;;
19621;SDS011;9958;33.196;-97.114;2023-06-22T08:39:41;12.23;;;9.40;;
19621;SDS011;9958;33.196;-97.114;2023-06-22T08:42:10;10.95;;;9.23;;
19621;SDS011;9958;33.196;-97.114;2023-06-22T08:44:38;11.63;;;9.18;;
19621;SDS011;9958;33.196;-97.114;2023-06-22T08:47:07;12.73;;;9.13;;
19621;SDS011;9958;33.196;-97.114;2023-06-22T08:49:37;12.73;;;9.57;;
19621;SDS011;9958;33.196;-97.114;2023-06-22T08:52:05;13.80;;;9.32;;
19621;SDS011;9958;33.196;-97.114;2023-06-22T08:54:34;11.68;;;9.23;;
19621;SDS011;9958;33.196;-97.114;2023-06-22T08:57:03;14.70;;;9.73;;
19621;SDS011;9958;33.196;-97.114;2023-06-22T08:59:31;13.82;;;9.18;;
19621;SDS011;9958;33.196;-97.114;2023-06-22T09:02:00;11.98;;;8.18;;
19621;SDS011;9958;33.196;-97.114;2023-06-22T09:04:28;14.10;;;9.77;;
19621;SDS011;9958;33.196;-97.114;2023-06-22T09:07:01;11.77;;;8.55;;
19621;SDS011;9958;33.196;-97.114;2023-06-22T09:09:29;12.52;;;9.13;;
19621;SDS011;9958;33.196;-97.114;2023-06-22T09:11:58;11.90;;;8.85;;
19621;SDS011;9958;33.196;-97.114;2023-06-22T09:14:26;13.68;;;9.50;;
19621;SDS011;9958;33.196;-97.114;2023-06-22T09:16:55;13.90;;;9.60;;
19621;SDS011;9958;33.196;-97.114;2023-06-22T09:19:23;11.25;;;9.05;;
19621;SDS011;9958;33.196;-97.114;2023-06-22T09:21:52;13.07;;;9.18;;
19621;SDS011;9958;33.196;-97.114;2023-06-22T09:24:22;11.77;;;8.85;;
19621;SDS011;9958;33.196;-97.114;2023-06-22T09:26:50;12.00;;;8.38;;
19621;SDS011;9958;33.196;-97.114;2023-06-22T09:29:19;14.45;;;9.27;;
19621;SDS011;9958;33.196;-97.114;2023-06-22T09:31:47;13.48;;;8.48;;
19621;SDS011;9958;33.196;-97.114;2023-06-22T09:34:16;13.05;;;9.27;;
19621;SDS011;9958;33.196;-97.114;2023-06-22T09:36:46;12.00;;;8.82;;
19621;SDS011;9958;33.196;-97.114;2023-06-22T09:39:14;14.10;;;9.25;;
19621;SDS011;9958;33.196;-97.114;2023-06-22T09:41:44;12.90;;;9.23;;
19621;SDS011;9958;33.196;-97.114;2023-06-22T09:44:12;12.15;;;8.20;;
19621;SDS011;9958;33.196;-97.114;2023-06-22T09:46:41;10.30;;;8.10;;
19621;SDS011;9958;33.196;-97.114;2023-06-22T09:49:09;12.77;;;8.65;;
19621;SDS011;9958;33.196;-97.114;2023-06-22T09:51:37;13.30;;;9.63;;
19621;SDS011;9958;33.196;-97.114;2023-06-22T09:54:06;12.73;;;8.85;;
19621;SDS011;9958;33.196;-97.114;2023-06-22T09:56:34;13.98;;;8.45;;
19621;SDS011;9958;33.196;-97.114;2023-06-22T09:59:04;10.90;;;8.57;;
19621;SDS011;9958;33.196;-97.114;2023-06-22T10:01:33;12.55;;;9.20;;
19621;SDS011;9958;33.196;-97.114;2023-06-22T10:04:01;14.90;;;9.07;;
19621;SDS011;9958;33.196;-97.114;2023-06-22T10:06:30;13.98;;;9.10;;
19621;SDS011;9958;33.196;-97.114;2023-06-22T10:08:58;13.70;;;8.98;;
19621;SDS011;9958;33.196;-97.114;2023-06-22T10:11:26;12.00;;;8.63;;
19621;SDS011;9958;33.196;-97.114;2023-06-22T10:13:56;13.10;;;9.00;;
19621;SDS011;9958;33.196;-97.114;2023-06-22T10:16:29;12.45;;;9.52;;
19621;SDS011;9958;33.196;-97.114;2023-06-22T10:18:58;13.27;;;7.95;;
19621;SDS011;9958;33.196;-97.114;2023-06-22T10:21:27;12.73;;;9.07;;
19621;SDS011;9958;33.196;-97.114;2023-06-22T10:23:55;12.20;;;8.88;;
19621;SDS011;9958;33.196;-97.114;2023-06-22T10:26:23;12.05;;;8.68;;
19621;SDS011;9958;33.196;-97.114;2023-06-22T10:28:54;12.07;;;8.68;;
19621;SDS011;9958;33.196;-97.114;2023-06-22T10:31:22;12.15;;;9.27;;
19621;SDS011;9958;33.196;-97.114;2023-06-22T10:33:52;12.13;;;8.65;;
19621;SDS011;9958;33.196;-97.114;2023-06-22T10:36:21;11.63;;;9.02;;
19621;SDS011;9958;33.196;-97.114;2023-06-22T10:38:49;11.20;;;8.52;;
19621;SDS011;9958;33.196;-97.114;2023-06-22T10:41:18;12.15;;;8.68;;
19621;SDS011;9958;33.196;-97.114;2023-06-22T10:43:47;12.38;;;8.50;;
19621;SDS011;9958;33.196;-97.114;2023-06-22T10:46:15;13.95;;;9.25;;
19621;SDS011;9958;33.196;-97.114;2023-06-22T10:48:43;10.93;;;8.70;;
19621;SDS011;9958;33.196;-97.114;2023-06-22T10:51:13;11.38;;;8.32;;
19621;SDS011;9958;33.196;-97.114;2023-06-22T10:53:43;12.63;;;8.25;;
19621;SDS011;9958;33.196;-97.114;2023-06-22T10:56:12;12.95;;;8.40;;
19621;SDS011;9958;33.196;-97.114;2023-06-22T10:58:40;12.13;;;9.55;;
19621;SDS011;9958;33.196;-97.114;2023-06-22T11:01:08;11.38;;;8.65;;
19621;SDS011;9958;33.196;-97.114;2023-06-22T11:03:36;14.07;;;8.65;;
19621;SDS011;9958;33.196;-97.114;2023-06-22T11:06:05;12.40;;;8.02;;
19621;SDS011;9958;33.196;-97.114;2023-06-22T11:08:35;11.02;;;8.18;;
19621;SDS011;9958;33.196;-97.114;2023-06-22T11:11:03;10.25;;;8.65;;
19621;SDS011;9958;33.196;-97.114;2023-06-22T11:13:31;14.32;;;8.45;;
19621;SDS011;9958;33.196;-97.114;2023-06-22T11:16:00;16.00;;;8.68;;
19621;SDS011;9958;33.196;-97.114;2023-06-22T11:18:28;13.27;;;8.48;;
19621;SDS011;9958;33.196;-97.114;2023-06-22T11:20:58;11.93;;;8.63;;
19621;SDS011;9958;33.196;-97.114;2023-06-22T11:23:27;11.98;;;8.10;;
19621;SDS011;9958;33.196;-97.114;2023-06-22T11:25:57;11.50;;;8.07;;
19621;SDS011;9958;33.196;-97.114;2023-06-22T11:28:25;10.05;;;7.78;;
19621;SDS011;9958;33.196;-97.114;2023-06-22T11:30:53;11.45;;;8.13;;
19621;SDS011;9958;33.196;-97.114;2023-06-22T11:33:22;11.35;;;8.50;;
19621;SDS011;9958;33.196;-97.114;2023-06-22T11:35:50;10.90;;;7.82;;
19621;SDS011;9958;33.196;-97.114;2023-06-22T11:38:18;10.07;;;7.82;;
19621;SDS011;9958;33.196;-97.114;2023-06-22T11:40:46;23.77;;;9.10;;
19621;SDS011;9958;33.196;-97.114;2023-06-22T11:43:16;13.00;;;7.90;;
19621;SDS011;9958;33.196;-97.114;2023-06-22T11:45:45;12.35;;;8.65;;
19621;SDS011;9958;33.196;-97.114;2023-06-22T11:48:13;12.38;;;8.45;;
19621;SDS011;9958;33.196;-97.114;2023-06-22T11:50:42;12.25;;;8.43;;
19621;SDS011;9958;33.196;-97.114;2023-06-22T11:53:10;13.70;;;8.52;;
19621;SDS011;9958;33.196;-97.114;2023-06-22T11:55:42;11.90;;;8.43;;
19621;SDS011;9958;33.196;-97.114;2023-06-22T11:58:10;11.88;;;8.27;;
19621;SDS011;9958;33.196;-97.114;2023-06-22T12:00:41;9.32;;;7.63;;
19621;SDS011;9958;33.196;-97.114;2023-06-22T12:03:09;13.57;;;8.38;;
19621;SDS011;9958;33.196;-97.114;2023-06-22T12:05:37;11.90;;;8.30;;
19621;SDS011;9958;33.196;-97.114;2023-06-22T12:08:06;10.95;;;8.32;;
19621;SDS011;9958;33.196;-97.114;2023-06-22T12:10:34;11.45;;;8.10;;
19621;SDS011;9958;33.196;-97.114;2023-06-22T12:13:02;13.45;;;8.65;;
19621;SDS011;9958;33.196;-97.114;2023-06-22T12:15:31;11.43;;;7.47;;
19621;SDS011;9958;33.196;-97.114;2023-06-22T12:18:01;12.38;;;8.15;;
19621;SDS011;9958;33.196;-97.114;2023-06-22T12:20:29;10.80;;;7.85;;
19621;SDS011;9958;33.196;-97.114;2023-06-22T12:22:57;11.52;;;8.18;;
19621;SDS011;9958;33.196;-97.114;2023-06-22T12:25:25;11.43;;;8.10;;
19621;SDS011;9958;33.196;-97.114;2023-06-22T12:27:54;11.95;;;7.68;;
19621;SDS011;9958;33.196;-97.114;2023-06-22T12:30:22;11.65;;;8.23;;
19621;SDS011;9958;33.196;-97.114;2023-06-22T12:32:51;12.48;;;8.00;;
19621;SDS011;9958;33.196;-97.114;2023-06-22T12:35:20;10.00;;;8.07;;
19621;SDS011;9958;33.196;-97.114;2023-06-22T12:37:49;10.73;;;7.68;;
19621;SDS011;9958;33.196;-97.114;2023-06-22T12:40:17;9.95;;;7.90;;
19621;SDS011;9958;33.196;-97.114;2023-06-22T12:42:45;12.55;;;8.75;;
19621;SDS011;9958;33.196;-97.114;2023-06-22T12:45:15;11.13;;;7.90;;
19621;SDS011;9958;33.196;-97.114;2023-06-22T12:47:44;11.60;;;7.88;;
19621;SDS011;9958;33.196;-97.114;2023-06-22T12:50:12;10.93;;;7.47;;
19621;SDS011;9958;33.196;-97.114;2023-06-22T12:52:42;10.77;;;8.10;;
19621;SDS011;9958;33.196;-97.114;2023-06-22T12:55:11;10.75;;;7.47;;
19621;SDS011;9958;33.196;-97.114;2023-06-22T12:57:39;11.40;;;8.40;;
19621;SDS011;9958;33.196;-97.114;2023-06-22T13:00:08;10.38;;;7.82;;
19621;SDS011;9958;33.196;-97.114;2023-06-22T13:02:37;10.07;;;7.65;;
19621;SDS011;9958;33.196;-97.114;2023-06-22T13:05:05;9.98;;;7.60;;
19621;SDS011;9958;33.196;-97.114;2023-06-22T13:07:34;13.25;;;7.65;;
19621;SDS011;9958;33.196;-97.114;2023-06-22T13:10:04;10.73;;;7.40;;
19621;SDS011;9958;33.196;-97.114;2023-06-22T13:12:33;8.50;;;7.00;;
19621;SDS011;9958;33.196;-97.114;2023-06-22T13:15:02;9.35;;;6.95;;
19621;SDS011;9958;33.196;-97.114;2023-06-22T13:17:30;8.15;;;6.88;;
19621;SDS011;9958;33.196;-97.114;2023-06-22T13:19:58;12.90;;;7.75;;
19621;SDS011;9958;33.196;-97.114;2023-06-22T13:22:30;9.07;;;7.00;;
19621;SDS011;9958;33.196;-97.114;2023-06-22T13:25:07;8.77;;;7.03;;
19621;SDS011;9958;33.196;-97.114;2023-06-22T13:27:37;8.55;;;6.63;;
19621;SDS011;9958;33.196;-97.114;2023-06-22T13:30:06;10.15;;;7.28;;
19621;SDS011;9958;33.196;-97.114;2023-06-22T13:32:35;8.63;;;6.90;;
19621;SDS011;9958;33.196;-97.114;2023-06-22T13:35:04;8.65;;;6.30;;
19621;SDS011;9958;33.196;-97.114;2023-06-22T13:37:33;9.65;;;6.70;;
19621;SDS011;9958;33.196;-97.114;2023-06-22T13:40:01;7.38;;;6.45;;
19621;SDS011;9958;33.196;-97.114;2023-06-22T13:42:33;9.68;;;5.93;;
19621;SDS011;9958;33.196;-97.114;2023-06-22T13:45:01;7.32;;;6.18;;
19621;SDS011;9958;33.196;-97.114;2023-06-22T13:47:30;9.65;;;6.50;;
19621;SDS011;9958;33.196;-97.114;2023-06-22T13:49:59;7.55;;;6.03;;
19621;SDS011;9958;33.196;-97.114;2023-06-22T13:52:27;7.25;;;5.75;;
19621;SDS011;9958;33.196;-97.114;2023-06-22T13:54:55;5.85;;;5.25;;
19621;SDS011;9958;33.196;-97.114;2023-06-22T13:57:24;7.80;;;5.50;;
19621;SDS011;9958;33.196;-97.114;2023-06-22T13:59:54;7.30;;;6.03;;
19621;SDS011;9958;33.196;-97.114;2023-06-22T14:02:22;7.18;;;5.25;;
19621;SDS011;9958;33.196;-97.114;2023-06-22T14:04:50;6.30;;;5.35;;
19621;SDS011;9958;33.196;-97.114;2023-06-22T14:07:19;7.63;;;5.78;;
19621;SDS011;9958;33.196;-97.114;2023-06-22T14:09:47;8.00;;;5.40;;
19621;SDS011;9958;33.196;-97.114;2023-06-22T14:12:15;6.35;;;5.22;;
19621;SDS011;9958;33.196;-97.114;2023-06-22T14:14:44;6.35;;;5.32;;
19621;SDS011;9958;33.196;-97.114;2023-06-22T14:17:14;6.57;;;5.10;;
19621;SDS011;9958;33.196;-97.114;2023-06-22T14:19:42;5.45;;;4.82;;
19621;SDS011;9958;33.196;-97.114;2023-06-22T14:22:11;6.50;;;4.53;;
19621;SDS011;9958;33.196;-97.114;2023-06-22T14:24:39;6.82;;;4.20;;
19621;SDS011;9958;33.196;-97.114;2023-06-22T14:27:07;4.63;;;4.22;;
19621;SDS011;9958;33.196;-97.114;2023-06-22T14:29:36;5.50;;;4.40;;
19621;SDS011;9958;33.196;-97.114;2023-06-22T14:32:04;5.97;;;4.80;;